createdAt,value
2019-06-01T00:00:21.158Z,12.93
2019-06-01T00:02:56.020Z,10.35
2019-06-01T00:07:48.993Z,10.48
2019-06-01T00:10:17.745Z,11.70
2019-06-01T00:12:47.632Z,12.25
2019-06-01T00:15:16.806Z,19.50
2019-06-01T00:17:48.002Z,10.23
2019-06-01T00:20:16.620Z,12.20
2019-06-01T00:22:45.520Z,12.37
2019-06-01T00:25:16.131Z,10.30
2019-06-01T00:27:46.731Z,13.00
2019-06-01T00:30:26.693Z,10.35
2019-06-01T00:32:47.213Z,14.00
2019-06-01T00:35:16.155Z,15.38
2019-06-01T00:37:45.638Z,16.17
2019-06-01T00:40:14.478Z,11.35
2019-06-01T00:42:44.029Z,11.90
2019-06-01T00:45:12.651Z,10.80
2019-06-01T00:47:42.672Z,13.05
2019-06-01T00:50:11.460Z,12.17
2019-06-01T00:52:40.173Z,10.95
2019-06-01T00:55:08.823Z,14.73
2019-06-01T00:57:37.609Z,11.95
2019-06-01T01:00:06.843Z,14.38
2019-06-01T01:02:35.910Z,14.50
2019-06-01T01:05:14.757Z,14.07
2019-06-01T01:07:44.546Z,10.72
2019-06-01T01:10:13.705Z,15.18
2019-06-01T01:13:00.319Z,15.80
2019-06-01T01:15:31.055Z,13.78
2019-06-01T01:18:00.102Z,12.47
2019-06-01T01:20:29.037Z,14.75
2019-06-01T01:22:57.617Z,15.20
2019-06-01T01:25:28.196Z,16.65
2019-06-01T01:27:59.319Z,14.73
2019-06-01T01:30:28.072Z,12.63
2019-06-01T01:32:59.083Z,14.15
2019-06-01T01:35:27.556Z,16.62
2019-06-01T01:37:58.160Z,12.65
2019-06-01T01:40:27.862Z,15.45
2019-06-01T01:42:56.625Z,14.18
2019-06-01T01:45:25.552Z,16.07
2019-06-01T01:47:55.078Z,13.15
2019-06-01T01:50:26.970Z,21.55
2019-06-01T01:52:56.824Z,15.00
2019-06-01T01:55:26.272Z,14.95
2019-06-01T01:57:55.489Z,15.23
2019-06-01T02:00:41.010Z,14.75
2019-06-01T02:03:13.306Z,16.90
2019-06-01T02:05:42.513Z,17.80
2019-06-01T02:08:11.591Z,16.37
2019-06-01T02:10:40.695Z,16.25
2019-06-01T02:13:09.483Z,18.55
2019-06-01T02:15:41.071Z,17.32
2019-06-01T02:18:09.930Z,15.60
2019-06-01T02:20:38.277Z,18.27
2019-06-01T02:23:06.979Z,18.35
2019-06-01T02:28:06.216Z,17.42
2019-06-01T02:30:35.196Z,19.95
2019-06-01T02:33:04.819Z,18.50
2019-06-01T02:35:33.701Z,18.93
2019-06-01T02:38:03.169Z,19.65
2019-06-01T02:40:32.985Z,20.72
2019-06-01T02:43:03.691Z,18.98
2019-06-01T02:45:33.076Z,17.80
2019-06-01T02:48:03.668Z,24.12
2019-06-01T02:50:32.390Z,20.15
2019-06-01T02:53:01.801Z,24.90
2019-06-01T02:55:30.331Z,20.52
2019-06-01T02:58:00.335Z,19.27
2019-06-01T03:01:56.705Z,23.40
2019-06-01T03:04:15.717Z,23.55
2019-06-01T03:06:44.407Z,21.95
2019-06-01T03:09:13.292Z,28.15
2019-06-01T03:11:42.298Z,25.27
2019-06-01T03:14:12.297Z,21.77
2019-06-01T03:19:12.765Z,23.85
2019-06-01T03:24:13.265Z,25.12
2019-06-01T03:26:46.389Z,24.07
2019-06-01T03:29:19.248Z,21.52
2019-06-01T03:31:48.417Z,23.45
2019-06-01T03:34:17.024Z,21.42
2019-06-01T03:36:45.826Z,25.37
2019-06-01T03:39:14.503Z,22.80
2019-06-01T03:41:43.213Z,23.35
2019-06-01T03:44:13.026Z,25.32
2019-06-01T03:46:41.785Z,29.27
2019-06-01T03:49:11.612Z,22.52
2019-06-01T03:54:10.123Z,23.38
2019-06-01T03:56:38.982Z,22.50
2019-06-01T03:59:09.328Z,23.27
2019-06-01T04:01:37.808Z,25.45
2019-06-01T04:04:07.152Z,22.05
2019-06-01T04:06:35.895Z,26.23
2019-06-01T04:09:07.744Z,22.30
2019-06-01T04:11:36.682Z,22.77
2019-06-01T04:14:05.734Z,25.82
2019-06-01T04:16:34.664Z,25.08
2019-06-01T04:19:06.000Z,25.15
2019-06-01T04:21:35.112Z,25.85
2019-06-01T04:24:04.053Z,25.65
2019-06-01T04:26:32.757Z,26.27
2019-06-01T04:29:04.877Z,23.92
2019-06-01T04:31:35.840Z,26.93
2019-06-01T04:34:04.587Z,24.85
2019-06-01T04:36:33.317Z,27.20
2019-06-01T04:39:03.565Z,33.85
2019-06-01T04:41:32.247Z,26.97
2019-06-01T04:44:02.010Z,30.95
2019-06-01T04:46:30.527Z,27.70
2019-06-01T04:48:59.038Z,29.30
2019-06-01T04:51:27.558Z,27.77
2019-06-01T04:53:56.602Z,30.37
2019-06-01T04:56:25.595Z,50.55
2019-06-01T04:58:54.400Z,31.73
2019-06-01T05:01:22.992Z,24.80
2019-06-01T05:03:51.665Z,26.42
2019-06-01T05:06:20.516Z,30.02
2019-06-01T05:08:49.073Z,26.37
2019-06-01T05:11:17.504Z,38.53
2019-06-01T05:13:46.400Z,26.60
2019-06-01T05:16:16.471Z,33.38
2019-06-01T05:18:45.055Z,26.85
2019-06-01T05:21:15.198Z,25.95
2019-06-01T05:23:43.898Z,25.62
2019-06-01T05:26:13.119Z,25.12
2019-06-01T05:28:41.897Z,24.10
2019-06-01T05:31:19.469Z,20.55
2019-06-01T05:33:45.420Z,24.27
2019-06-01T05:36:14.290Z,22.37
2019-06-01T05:38:42.859Z,19.12
2019-06-01T05:41:13.138Z,17.82
2019-06-01T05:43:41.717Z,17.87
2019-06-01T05:46:10.412Z,17.07
2019-06-01T05:48:38.888Z,22.70
2019-06-01T05:51:07.770Z,21.97
2019-06-01T05:53:36.161Z,20.90
2019-06-01T05:56:04.832Z,20.65
2019-06-01T05:58:33.264Z,20.00
2019-06-01T06:01:02.689Z,19.02
2019-06-01T06:03:39.893Z,20.82
2019-06-01T06:08:32.616Z,19.95
2019-06-01T06:11:03.383Z,17.52
2019-06-01T06:13:31.766Z,17.25
2019-06-01T06:16:00.476Z,18.45
2019-06-01T06:18:29.499Z,18.67
2019-06-01T06:20:57.990Z,16.90
2019-06-01T06:23:27.684Z,17.97
2019-06-01T06:25:56.514Z,15.65
2019-06-01T06:28:26.788Z,18.40
2019-06-01T06:30:55.365Z,15.95
2019-06-01T06:33:25.919Z,17.45
2019-06-01T06:38:24.662Z,15.75
2019-06-01T06:40:53.247Z,18.75
2019-06-01T06:43:28.875Z,16.27
2019-06-01T06:45:53.043Z,16.87
2019-06-01T06:48:23.345Z,13.78
2019-06-01T06:50:51.919Z,13.47
2019-06-01T06:53:29.654Z,13.53
2019-06-01T06:55:51.193Z,11.15
2019-06-01T06:58:21.034Z,13.18
2019-06-01T07:00:50.062Z,17.98
2019-06-01T07:03:18.918Z,12.98
2019-06-01T07:05:47.493Z,15.05
2019-06-01T07:08:16.266Z,10.78
2019-06-01T07:10:45.466Z,21.82
2019-06-01T07:13:14.393Z,13.15
2019-06-01T07:15:43.435Z,14.55
2019-06-01T07:20:43.594Z,12.95
2019-06-01T07:23:12.213Z,12.25
2019-06-01T07:25:41.900Z,9.75
2019-06-01T07:28:12.372Z,10.53
2019-06-01T07:30:50.380Z,11.03
2019-06-01T07:33:11.887Z,9.83
2019-06-01T07:35:42.438Z,11.18
2019-06-01T07:38:12.930Z,9.00
2019-06-01T07:40:41.653Z,9.00
2019-06-01T07:43:10.029Z,12.85
2019-06-01T07:45:38.860Z,10.00
2019-06-01T07:48:07.394Z,12.63
2019-06-01T07:50:35.840Z,11.20
2019-06-01T07:53:04.466Z,9.63
2019-06-01T07:55:33.144Z,12.13
2019-06-01T07:58:02.729Z,10.38
2019-06-01T08:00:31.114Z,7.03
2019-06-01T08:02:59.779Z,13.48
2019-06-01T08:05:28.228Z,8.83
2019-06-01T08:07:56.893Z,7.70
2019-06-01T08:10:26.510Z,7.15
2019-06-01T08:12:56.726Z,8.23
2019-06-01T08:15:25.744Z,7.95
2019-06-01T08:17:54.774Z,7.75
2019-06-01T08:20:24.008Z,10.85
2019-06-01T08:22:52.722Z,8.05
2019-06-01T08:25:22.143Z,6.05
2019-06-01T08:27:52.931Z,7.12
2019-06-01T08:30:22.579Z,8.45
2019-06-01T08:32:51.428Z,5.50
2019-06-01T08:35:20.147Z,4.58
2019-06-01T08:37:50.500Z,5.92
2019-06-01T08:40:21.032Z,5.62
2019-06-01T08:42:49.466Z,9.48
2019-06-01T08:45:18.763Z,7.70
2019-06-01T08:47:47.570Z,10.15
2019-06-01T08:50:16.439Z,6.65
2019-06-01T08:52:44.819Z,9.48
2019-06-01T08:55:13.405Z,6.78
2019-06-01T08:57:42.334Z,6.70
2019-06-01T09:00:11.317Z,7.42
2019-06-01T09:02:39.973Z,8.38
2019-06-01T09:05:23.354Z,6.90
2019-06-01T09:07:39.260Z,6.25
2019-06-01T09:10:09.519Z,7.05
2019-06-01T09:12:38.128Z,9.75
2019-06-01T09:15:07.898Z,6.37
2019-06-01T09:17:36.391Z,7.20
2019-06-01T09:20:05.611Z,5.60
2019-06-01T09:22:35.736Z,5.75
2019-06-01T09:25:05.112Z,6.28
2019-06-01T09:27:33.934Z,6.37
2019-06-01T09:30:03.575Z,4.40
2019-06-01T09:32:32.339Z,5.58
2019-06-01T09:35:01.199Z,4.37
2019-06-01T09:37:30.558Z,5.70
2019-06-01T09:40:01.030Z,3.95
2019-06-01T09:44:59.919Z,6.33
2019-06-01T09:47:29.073Z,4.90
2019-06-01T09:49:57.623Z,4.33
2019-06-01T09:52:27.301Z,5.45
2019-06-01T09:54:56.191Z,5.62
2019-06-01T09:57:24.939Z,5.67
2019-06-01T09:59:53.927Z,5.22
2019-06-01T10:02:22.609Z,5.15
2019-06-01T10:04:51.218Z,6.37
2019-06-01T10:07:19.744Z,9.95
2019-06-01T10:09:48.680Z,6.20
2019-06-01T10:12:17.483Z,5.45
2019-06-01T10:14:46.023Z,6.30
2019-06-01T10:17:15.206Z,7.72
2019-06-01T10:19:44.341Z,5.10
2019-06-01T10:22:13.154Z,4.92
2019-06-01T10:24:41.694Z,4.33
2019-06-01T10:27:10.711Z,5.58
2019-06-01T10:29:39.948Z,6.58
2019-06-01T10:32:10.898Z,4.17
2019-06-01T10:34:39.985Z,4.37
2019-06-01T10:37:08.665Z,3.65
2019-06-01T10:39:37.275Z,3.33
2019-06-01T10:42:07.472Z,4.22
2019-06-01T10:44:43.445Z,3.67
2019-06-01T10:47:09.133Z,5.60
2019-06-01T10:49:38.143Z,3.60
2019-06-01T10:52:06.772Z,4.80
2019-06-01T10:54:36.177Z,4.50
2019-06-01T10:57:04.820Z,7.05
2019-06-01T10:59:34.292Z,3.70
2019-06-01T11:02:03.068Z,2.50
2019-06-01T11:04:32.767Z,3.33
2019-06-01T11:07:02.401Z,3.42
2019-06-01T11:09:32.942Z,2.60
2019-06-01T11:12:02.384Z,3.12
2019-06-01T11:14:31.224Z,3.87
2019-06-01T11:17:00.116Z,6.37
2019-06-01T11:19:30.492Z,3.33
2019-06-01T11:21:59.302Z,4.37
2019-06-01T11:24:28.081Z,2.67
2019-06-01T11:26:56.784Z,2.77
2019-06-01T11:29:25.492Z,3.35
2019-06-01T11:31:54.732Z,6.67
2019-06-01T11:37:04.590Z,3.52
2019-06-01T11:39:23.027Z,3.20
2019-06-01T11:41:51.603Z,3.67
2019-06-01T11:44:22.136Z,3.75
2019-06-01T11:49:21.478Z,2.52
2019-06-01T11:51:50.142Z,2.62
2019-06-01T11:54:18.664Z,3.15
2019-06-01T11:56:47.117Z,2.00
2019-06-01T11:59:16.065Z,7.85
2019-06-01T12:01:45.873Z,2.50
2019-06-01T12:04:15.454Z,3.08
2019-06-01T12:06:44.289Z,5.73
2019-06-01T12:09:13.345Z,2.30
2019-06-01T12:11:42.341Z,2.92
2019-06-01T12:14:11.291Z,2.30
2019-06-01T12:16:40.412Z,2.47
2019-06-01T12:19:08.934Z,2.67
2019-06-01T12:21:38.828Z,2.67
2019-06-01T12:26:35.622Z,4.10
2019-06-01T12:29:04.314Z,3.10
2019-06-01T12:31:33.340Z,6.12
2019-06-01T12:34:02.246Z,7.87
2019-06-01T12:36:32.161Z,5.28
2019-06-01T12:39:01.536Z,2.90
2019-06-01T12:41:30.462Z,3.27
2019-06-01T12:44:11.374Z,5.20
2019-06-01T12:46:42.240Z,4.05
2019-06-01T12:49:12.579Z,4.58
2019-06-01T12:51:42.528Z,6.08
2019-06-01T12:54:11.196Z,5.08
2019-06-01T12:56:40.698Z,8.75
2019-06-01T12:59:09.620Z,3.08
2019-06-01T13:01:38.470Z,5.45
2019-06-01T13:04:06.851Z,2.50
2019-06-01T13:06:35.530Z,4.50
2019-06-01T13:09:07.557Z,1.90
2019-06-01T13:11:36.403Z,5.37
2019-06-01T13:14:05.237Z,2.55
2019-06-01T13:16:33.751Z,2.92
2019-06-01T13:19:02.362Z,3.17
2019-06-01T13:21:31.037Z,1.90
2019-06-01T13:23:59.717Z,4.55
2019-06-01T13:26:28.451Z,2.30
2019-06-01T13:28:57.222Z,2.33
2019-06-01T13:31:25.580Z,2.40
2019-06-01T13:33:54.172Z,2.80
2019-06-01T13:36:22.852Z,4.05
2019-06-01T13:38:53.015Z,1.92
2019-06-01T13:41:21.779Z,2.23
2019-06-01T13:43:51.434Z,1.37
2019-06-01T13:46:20.021Z,4.17
2019-06-01T13:48:50.258Z,2.05
2019-06-01T13:51:20.799Z,2.98
2019-06-01T13:53:50.450Z,2.50
2019-06-01T13:56:19.413Z,2.20
2019-06-01T13:58:48.247Z,2.62
2019-06-01T14:01:16.900Z,2.60
2019-06-01T14:03:45.464Z,5.67
2019-06-01T14:06:14.486Z,2.90
2019-06-01T14:08:43.460Z,3.17
2019-06-01T14:11:12.455Z,3.45
2019-06-01T14:13:40.873Z,2.27
2019-06-01T14:16:09.518Z,4.80
2019-06-01T14:18:38.503Z,3.85
2019-06-01T14:21:07.217Z,3.15
2019-06-01T14:23:35.886Z,1.98
2019-06-01T14:26:05.178Z,1.90
2019-06-01T14:28:33.852Z,2.97
2019-06-01T14:31:02.590Z,7.50
2019-06-01T14:33:31.277Z,4.58
2019-06-01T14:35:59.615Z,2.25
2019-06-01T14:38:45.636Z,5.45
2019-06-01T14:41:00.087Z,4.95
2019-06-01T14:43:29.077Z,4.33
2019-06-01T14:45:58.088Z,4.97
2019-06-01T14:48:26.751Z,6.35
2019-06-01T14:50:57.919Z,2.35
2019-06-01T14:53:28.427Z,8.33
2019-06-01T14:55:57.989Z,3.90
2019-06-01T14:58:27.100Z,3.45
2019-06-01T15:00:56.628Z,5.30
2019-06-01T15:03:25.156Z,3.92
2019-06-01T15:05:54.397Z,5.03
2019-06-01T15:08:23.127Z,6.90
2019-06-01T15:10:53.420Z,6.10
2019-06-01T15:13:22.810Z,4.00
2019-06-01T15:15:53.412Z,2.05
2019-06-01T15:20:50.109Z,5.12
2019-06-01T15:23:19.099Z,2.80
2019-06-01T15:25:47.799Z,3.80
2019-06-01T15:28:16.637Z,2.30
2019-06-01T15:30:46.223Z,3.08
2019-06-01T15:33:14.873Z,2.70
2019-06-01T15:35:43.208Z,2.20
2019-06-01T15:38:11.856Z,6.05
2019-06-01T15:40:40.276Z,3.40
2019-06-01T15:43:10.430Z,3.37
2019-06-01T15:45:41.254Z,2.92
2019-06-01T15:48:09.699Z,4.05
2019-06-01T15:50:38.700Z,6.15
2019-06-01T15:53:09.329Z,4.03
2019-06-01T15:55:39.667Z,4.62
2019-06-01T15:58:08.111Z,2.92
2019-06-01T16:00:36.816Z,9.08
2019-06-01T16:03:05.459Z,6.87
2019-06-01T16:05:33.842Z,3.08
2019-06-01T16:08:03.684Z,4.67
2019-06-01T16:10:32.110Z,7.65
2019-06-01T16:13:04.303Z,5.30
2019-06-01T16:15:33.189Z,2.87
2019-06-01T16:18:02.424Z,5.20
2019-06-01T16:20:30.882Z,3.10
2019-06-01T16:23:00.303Z,3.22
2019-06-01T16:25:30.246Z,2.70
2019-06-01T16:27:58.830Z,2.25
2019-06-01T16:30:27.464Z,6.97
2019-06-01T16:32:56.468Z,5.53
2019-06-01T16:35:25.207Z,1.85
2019-06-01T16:37:54.928Z,7.90
2019-06-01T16:40:23.535Z,4.55
2019-06-01T16:42:51.925Z,5.17
2019-06-01T16:45:21.020Z,2.37
2019-06-01T16:47:49.847Z,4.30
2019-06-01T16:50:18.216Z,4.80
2019-06-01T16:52:46.683Z,2.90
2019-06-01T16:55:17.111Z,4.55
2019-06-01T16:57:47.970Z,3.50
2019-06-01T17:00:18.102Z,2.98
2019-06-01T17:05:16.281Z,4.72
2019-06-01T17:07:45.207Z,2.20
2019-06-01T17:10:25.495Z,2.85
2019-06-01T17:12:45.727Z,4.30
2019-06-01T17:15:15.465Z,9.28
2019-06-01T17:17:43.949Z,6.65
2019-06-01T17:20:46.192Z,4.45
2019-06-01T17:23:27.448Z,6.78
2019-06-01T17:25:45.233Z,6.72
2019-06-01T17:28:13.897Z,2.67
2019-06-01T17:30:42.786Z,5.40
2019-06-01T17:33:11.336Z,2.80
2019-06-01T17:35:40.379Z,5.28
2019-06-01T17:38:09.271Z,3.77
2019-06-01T17:40:42.296Z,1.92
2019-06-01T17:43:08.929Z,3.47
2019-06-01T17:45:38.916Z,5.95
2019-06-01T17:48:23.470Z,7.97
2019-06-01T17:50:38.594Z,5.55
2019-06-01T17:53:08.701Z,5.42
2019-06-01T17:55:39.824Z,4.10
2019-06-01T17:58:11.770Z,6.25
2019-06-01T18:00:41.057Z,9.70
2019-06-01T18:03:10.246Z,7.78
2019-06-01T18:05:39.479Z,6.50
2019-06-01T18:08:08.261Z,2.90
2019-06-01T18:10:52.654Z,4.53
2019-06-01T18:13:10.165Z,7.42
2019-06-01T18:15:39.315Z,5.92
2019-06-01T18:18:08.774Z,4.78
2019-06-01T18:20:37.997Z,6.35
2019-06-01T18:23:08.330Z,6.25
2019-06-01T18:25:37.785Z,4.90
2019-06-01T18:28:13.225Z,6.72
2019-06-01T18:30:38.205Z,9.18
2019-06-01T18:33:07.233Z,4.55
2019-06-01T18:35:35.887Z,10.20
2019-06-01T18:38:05.773Z,6.08
2019-06-01T18:40:35.299Z,5.60
2019-06-01T18:43:10.066Z,10.53
2019-06-01T18:45:40.252Z,3.35
2019-06-01T18:48:10.179Z,7.03
2019-06-01T18:50:39.183Z,4.90
2019-06-01T18:53:08.185Z,8.20
2019-06-01T18:55:38.067Z,8.20
2019-06-01T18:58:10.257Z,7.47
2019-06-01T19:03:09.268Z,8.33
2019-06-01T19:05:37.694Z,9.48
2019-06-01T19:08:07.201Z,10.82
2019-06-01T19:10:35.992Z,6.50
2019-06-01T19:13:05.650Z,8.78
2019-06-01T19:15:36.422Z,7.87
2019-06-01T19:18:06.335Z,5.37
2019-06-01T19:20:35.043Z,5.03
2019-06-01T19:23:04.069Z,5.80
2019-06-01T19:25:32.622Z,6.97
2019-06-01T19:28:02.903Z,12.60
2019-06-01T19:33:15.342Z,10.03
2019-06-01T19:35:42.277Z,6.30
2019-06-01T19:38:11.428Z,10.13
2019-06-01T19:40:41.230Z,21.55
2019-06-01T19:43:11.514Z,7.30
2019-06-01T19:45:41.355Z,8.68
2019-06-01T19:48:11.875Z,7.85
2019-06-01T19:50:41.005Z,12.63
2019-06-01T19:53:10.608Z,9.25
2019-06-01T19:55:39.137Z,9.57
2019-06-01T19:58:10.012Z,7.72
2019-06-01T20:00:40.676Z,11.22
2019-06-01T20:03:10.265Z,13.08
2019-06-01T20:05:38.997Z,13.38
2019-06-01T20:08:07.634Z,14.60
2019-06-01T20:10:36.344Z,13.40
2019-06-01T20:13:05.050Z,14.47
2019-06-01T20:15:33.455Z,15.23
2019-06-01T20:18:02.615Z,12.03
2019-06-01T20:20:31.485Z,7.62
2019-06-01T20:23:00.110Z,9.38
2019-06-01T20:25:29.450Z,7.75
2019-06-01T20:27:58.092Z,9.38
2019-06-01T20:30:26.502Z,12.45
2019-06-01T20:32:55.152Z,21.95
2019-06-01T20:35:23.532Z,15.03
2019-06-01T20:37:52.537Z,13.93
2019-06-01T20:40:20.955Z,8.70
2019-06-01T20:42:49.924Z,15.72
2019-06-01T20:45:20.868Z,18.02
2019-06-01T20:47:50.353Z,15.18
2019-06-01T20:50:19.096Z,20.12
2019-06-01T20:52:47.712Z,12.25
2019-06-01T20:55:21.132Z,12.73
2019-06-01T20:57:49.959Z,17.00
2019-06-01T21:02:51.985Z,9.80
2019-06-01T21:05:21.995Z,14.77
2019-06-01T21:07:50.684Z,17.85
2019-06-01T21:10:20.462Z,16.73
2019-06-01T21:12:49.491Z,22.82
2019-06-01T21:15:19.272Z,17.15
2019-06-01T21:17:50.182Z,19.90
2019-06-01T21:20:25.388Z,21.77
2019-06-01T21:22:49.825Z,17.02
2019-06-01T21:25:18.857Z,14.78
2019-06-01T21:27:47.764Z,28.50
2019-06-01T21:30:18.325Z,16.15
2019-06-01T21:32:46.978Z,17.60
2019-06-01T21:35:17.359Z,14.73
2019-06-01T21:37:45.994Z,24.12
2019-06-01T21:40:15.330Z,19.87
2019-06-01T21:43:00.459Z,15.53
2019-06-01T21:45:15.529Z,18.00
2019-06-01T21:47:44.319Z,15.30
2019-06-01T21:50:16.524Z,18.27
2019-06-01T21:52:46.643Z,16.82
2019-06-01T21:55:16.003Z,19.60
2019-06-01T21:57:45.011Z,17.48
2019-06-01T22:00:24.654Z,16.17
2019-06-01T22:02:55.193Z,14.73
2019-06-01T22:05:25.275Z,15.35
2019-06-01T22:07:54.093Z,21.95
2019-06-01T22:10:23.245Z,14.78
2019-06-01T22:12:51.793Z,18.92
2019-06-01T22:15:21.550Z,19.82
2019-06-01T22:17:50.082Z,23.07
2019-06-01T22:20:19.811Z,19.17
2019-06-01T22:22:48.386Z,17.57
2019-06-01T22:25:17.774Z,16.50
2019-06-01T22:27:46.965Z,16.45
2019-06-01T22:30:18.320Z,16.55
2019-06-01T22:32:47.436Z,17.62
2019-06-01T22:35:16.439Z,16.05
2019-06-01T22:37:45.158Z,15.15
2019-06-01T22:40:14.204Z,17.55
2019-06-01T22:42:43.105Z,17.80
2019-06-01T22:45:12.149Z,21.27
2019-06-01T22:47:40.810Z,17.62
2019-06-01T22:50:10.709Z,18.75
2019-06-01T22:52:40.277Z,19.98
2019-06-01T22:55:09.499Z,21.48
2019-06-01T22:57:38.249Z,19.92
2019-06-01T23:00:07.590Z,21.05
2019-06-01T23:02:36.582Z,18.77
2019-06-01T23:05:07.357Z,17.87
2019-06-01T23:07:36.394Z,22.82
2019-06-01T23:10:05.383Z,21.02
2019-06-01T23:12:34.109Z,20.60
2019-06-01T23:15:02.777Z,23.40
2019-06-01T23:17:32.019Z,17.60
2019-06-01T23:20:00.780Z,15.83
2019-06-01T23:22:30.736Z,26.62
2019-06-01T23:24:59.367Z,16.37
2019-06-01T23:27:28.323Z,19.52
2019-06-01T23:29:57.040Z,21.60
2019-06-01T23:32:26.505Z,22.55
2019-06-01T23:34:54.991Z,22.13
2019-06-01T23:37:24.645Z,20.85
2019-06-01T23:39:53.344Z,20.37
2019-06-01T23:42:22.545Z,20.08
2019-06-01T23:44:51.978Z,22.15
2019-06-01T23:47:20.608Z,19.98
2019-06-01T23:49:48.863Z,21.07
2019-06-01T23:52:17.489Z,22.45
2019-06-01T23:54:46.686Z,18.75
2019-06-01T23:57:15.170Z,24.90
2019-06-01T23:59:43.766Z,18.85
